createdAt,value
2023-01-07T00:01:27.005Z,4.40
2023-01-07T00:03:54.504Z,4.65
2023-01-07T00:06:25.075Z,4.40
2023-01-07T00:08:54.052Z,4.88
2023-01-07T00:11:22.954Z,4.10
2023-01-07T00:13:51.593Z,4.55
2023-01-07T00:16:20.498Z,4.72
2023-01-07T00:18:47.656Z,4.68
2023-01-07T00:21:16.534Z,4.20
2023-01-07T00:23:44.386Z,4.00
2023-01-07T00:26:15.107Z,4.28
2023-01-07T00:28:43.261Z,4.15
2023-01-07T00:31:16.257Z,4.40
2023-01-07T00:34:06.955Z,4.30
2023-01-07T00:36:40.978Z,3.88
2023-01-07T00:39:10.930Z,3.92
2023-01-07T00:41:37.817Z,4.03
2023-01-07T00:44:05.912Z,3.53
2023-01-07T00:46:33.252Z,3.30
2023-01-07T00:49:00.020Z,3.60
2023-01-07T00:51:26.770Z,3.63
2023-01-07T00:53:53.495Z,3.20
2023-01-07T00:56:20.327Z,3.60
2023-01-07T00:58:47.152Z,3.70
2023-01-07T01:01:14.943Z,3.63
2023-01-07T01:03:41.763Z,3.25
2023-01-07T01:06:13.562Z,3.22
2023-01-07T01:08:47.478Z,3.28
2023-01-07T01:11:15.661Z,3.20
2023-01-07T01:13:43.341Z,3.50
2023-01-07T01:16:16.004Z,3.40
2023-01-07T01:18:43.392Z,3.60
2023-01-07T01:21:12.737Z,3.15
2023-01-07T01:23:39.757Z,3.47
2023-01-07T01:26:08.405Z,3.00
2023-01-07T01:28:35.473Z,3.20
2023-01-07T01:31:02.784Z,2.92
2023-01-07T01:33:39.158Z,3.17
2023-01-07T01:36:08.212Z,3.33
2023-01-07T01:38:35.136Z,3.45
2023-01-07T01:41:02.070Z,3.40
2023-01-07T01:43:33.010Z,3.67
2023-01-07T01:46:06.448Z,3.50
2023-01-07T01:48:34.348Z,3.63
2023-01-07T01:51:01.493Z,3.58
2023-01-07T01:53:32.014Z,3.70
2023-01-07T01:56:02.042Z,3.45
2023-01-07T01:58:36.084Z,3.58
2023-01-07T02:01:03.672Z,3.70
2023-01-07T02:03:33.683Z,4.80
2023-01-07T02:06:00.818Z,4.55
2023-01-07T02:08:27.706Z,4.05
2023-01-07T02:11:14.675Z,3.70
2023-01-07T02:14:03.752Z,3.92
2023-01-07T02:16:55.513Z,3.45
2023-01-07T02:19:28.074Z,3.65
2023-01-07T02:22:00.285Z,3.50
2023-01-07T02:24:49.028Z,3.63
2023-01-07T02:27:27.183Z,3.47
2023-01-07T02:30:25.439Z,3.72
2023-01-07T02:32:58.770Z,3.88
2023-01-07T02:35:53.883Z,3.30
2023-01-07T02:38:58.643Z,3.30
2023-01-07T02:41:45.880Z,3.33
2023-01-07T02:44:27.944Z,3.38
2023-01-07T02:47:03.797Z,3.22
2023-01-07T02:49:30.453Z,3.40
2023-01-07T02:52:15.022Z,3.20
2023-01-07T02:54:41.703Z,3.60
2023-01-07T02:57:35.843Z,3.15
2023-01-07T03:00:18.789Z,3.80
2023-01-07T03:03:20.506Z,3.30
2023-01-07T03:05:47.129Z,3.47
2023-01-07T03:08:43.545Z,3.53
2023-01-07T03:11:11.713Z,3.00
2023-01-07T03:13:41.420Z,3.00
2023-01-07T03:16:32.786Z,2.95
2023-01-07T03:19:07.393Z,3.30
2023-01-07T03:21:36.188Z,3.40
2023-01-07T03:24:03.011Z,3.28
2023-01-07T03:26:36.737Z,4.07
2023-01-07T03:29:05.548Z,3.45
2023-01-07T03:31:35.685Z,3.75
2023-01-07T03:34:09.549Z,3.83
2023-01-07T03:36:42.675Z,4.40
2023-01-07T03:39:11.292Z,3.90
2023-01-07T03:41:59.627Z,4.50
2023-01-07T03:44:26.613Z,4.20
2023-01-07T03:46:53.588Z,4.88
2023-01-07T03:49:20.726Z,5.38
2023-01-07T03:51:49.632Z,6.80
2023-01-07T03:54:17.174Z,6.60
2023-01-07T03:56:44.076Z,7.95
2023-01-07T03:59:10.815Z,7.03
2023-01-07T04:01:38.171Z,7.70
2023-01-07T04:04:05.342Z,6.90
2023-01-07T04:06:32.353Z,6.53
2023-01-07T04:08:59.322Z,6.55
2023-01-07T04:11:26.291Z,6.57
2023-01-07T04:13:53.497Z,6.15
2023-01-07T04:16:20.874Z,6.70
2023-01-07T04:18:48.257Z,6.40
2023-01-07T04:21:15.180Z,6.95
2023-01-07T04:23:41.860Z,7.00
2023-01-07T04:26:10.188Z,7.00
2023-01-07T04:28:38.964Z,6.85
2023-01-07T04:31:06.141Z,7.13
2023-01-07T04:33:36.093Z,7.60
2023-01-07T04:36:03.429Z,7.50
2023-01-07T04:38:30.505Z,7.22
2023-01-07T04:40:57.306Z,6.75
2023-01-07T04:43:24.070Z,6.90
2023-01-07T04:45:51.208Z,7.47
2023-01-07T04:48:19.101Z,7.43
2023-01-07T04:50:48.634Z,7.95
2023-01-07T04:53:16.053Z,8.45
2023-01-07T04:55:44.991Z,7.53
2023-01-07T04:58:13.323Z,7.85
2023-01-07T05:00:40.607Z,7.90
2023-01-07T05:03:07.863Z,7.65
2023-01-07T05:05:35.251Z,8.00
2023-01-07T05:08:02.768Z,7.70
2023-01-07T05:10:30.829Z,7.65
2023-01-07T05:12:57.741Z,7.35
2023-01-07T05:15:25.508Z,7.47
2023-01-07T05:17:54.169Z,7.13
2023-01-07T05:20:23.758Z,8.02
2023-01-07T05:22:50.496Z,7.10
2023-01-07T05:25:18.712Z,7.68
2023-01-07T05:27:45.546Z,7.30
2023-01-07T05:30:13.056Z,6.85
2023-01-07T05:32:39.742Z,6.93
2023-01-07T05:35:06.768Z,7.50
2023-01-07T05:37:34.032Z,7.60
2023-01-07T05:40:01.316Z,6.72
2023-01-07T05:42:28.036Z,7.50
2023-01-07T05:44:54.833Z,7.82
2023-01-07T05:47:21.536Z,6.60
2023-01-07T05:49:48.367Z,7.30
2023-01-07T05:52:15.322Z,7.10
2023-01-07T05:54:42.062Z,7.35
2023-01-07T05:57:09.054Z,6.40
2023-01-07T05:59:35.747Z,7.05
2023-01-07T06:02:02.949Z,8.00
2023-01-07T06:04:29.793Z,6.57
2023-01-07T06:06:56.807Z,6.88
2023-01-07T06:09:23.590Z,7.10
2023-01-07T06:11:50.302Z,6.68
2023-01-07T06:14:17.035Z,6.78
2023-01-07T06:16:43.716Z,6.65
2023-01-07T06:19:10.875Z,6.55
2023-01-07T06:21:37.575Z,6.30
2023-01-07T06:24:04.520Z,6.78
2023-01-07T06:26:31.224Z,6.40
2023-01-07T06:28:57.873Z,6.50
2023-01-07T06:31:24.633Z,6.63
2023-01-07T06:33:51.452Z,6.00
2023-01-07T06:36:18.136Z,6.07
2023-01-07T06:38:45.003Z,6.53
2023-01-07T06:41:11.711Z,6.80
2023-01-07T06:43:38.614Z,6.07
2023-01-07T06:46:05.794Z,6.53
2023-01-07T06:48:32.666Z,6.55
2023-01-07T06:50:59.343Z,6.20
2023-01-07T06:53:26.005Z,6.18
2023-01-07T06:55:52.680Z,6.38
2023-01-07T06:58:19.374Z,6.15
2023-01-07T07:00:46.040Z,6.10
2023-01-07T07:03:12.817Z,6.68
2023-01-07T07:05:39.605Z,6.65
2023-01-07T07:08:06.603Z,6.28
2023-01-07T07:10:33.444Z,6.13
2023-01-07T07:13:01.080Z,6.35
2023-01-07T07:15:27.793Z,6.03
2023-01-07T07:17:54.468Z,5.78
2023-01-07T07:20:21.361Z,6.07
2023-01-07T07:22:48.959Z,6.20
2023-01-07T07:25:16.249Z,5.30
2023-01-07T07:27:46.703Z,5.78
2023-01-07T07:30:15.257Z,5.30
2023-01-07T07:32:42.740Z,5.70
2023-01-07T07:35:10.002Z,5.50
2023-01-07T07:37:37.290Z,5.15
2023-01-07T07:40:06.066Z,5.60
2023-01-07T07:42:33.169Z,5.72
2023-01-07T07:45:20.022Z,5.47
2023-01-07T07:47:47.163Z,5.55
2023-01-07T07:50:13.981Z,5.05
2023-01-07T07:52:41.061Z,4.90
2023-01-07T07:55:20.651Z,5.15
2023-01-07T07:57:57.115Z,4.93
2023-01-07T08:00:24.608Z,4.80
2023-01-07T08:02:51.400Z,5.00
2023-01-07T08:05:18.234Z,4.80
2023-01-07T08:07:47.652Z,4.50
2023-01-07T08:10:14.366Z,4.35
2023-01-07T08:12:41.316Z,4.88
2023-01-07T08:15:08.640Z,4.13
2023-01-07T08:17:36.607Z,4.28
2023-01-07T08:20:04.695Z,4.70
2023-01-07T08:22:31.455Z,4.30
2023-01-07T08:24:58.230Z,4.28
2023-01-07T08:27:25.979Z,4.18
2023-01-07T08:29:52.779Z,5.05
2023-01-07T08:32:19.756Z,3.95
2023-01-07T08:34:46.465Z,4.07
2023-01-07T08:37:13.171Z,3.92
2023-01-07T08:39:39.968Z,3.92
2023-01-07T08:42:06.680Z,3.90
2023-01-07T08:44:34.758Z,3.65
2023-01-07T08:47:01.845Z,3.08
2023-01-07T08:49:28.819Z,3.60
2023-01-07T08:51:55.754Z,3.47
2023-01-07T08:54:22.628Z,3.55
2023-01-07T08:56:49.400Z,3.53
2023-01-07T08:59:16.100Z,3.88
2023-01-07T09:01:43.088Z,3.40
2023-01-07T09:04:09.867Z,3.20
2023-01-07T09:06:36.564Z,3.50
2023-01-07T09:09:03.271Z,3.65
2023-01-07T09:11:30.053Z,3.15
2023-01-07T09:13:57.040Z,3.45
2023-01-07T09:16:24.039Z,3.40
2023-01-07T09:18:50.942Z,3.70
2023-01-07T09:21:17.915Z,3.88
2023-01-07T09:23:44.720Z,3.25
2023-01-07T09:26:11.526Z,3.60
2023-01-07T09:28:38.361Z,3.20
2023-01-07T09:31:05.681Z,3.45
2023-01-07T09:33:32.846Z,3.25
2023-01-07T09:36:00.129Z,3.08
2023-01-07T09:38:27.001Z,2.72
2023-01-07T09:40:54.049Z,3.10
2023-01-07T09:43:58.710Z,3.22
2023-01-07T09:46:18.454Z,3.25
2023-01-07T09:48:54.259Z,3.03
2023-01-07T09:51:29.232Z,2.90
2023-01-07T09:54:00.302Z,2.95
2023-01-07T09:56:29.122Z,3.00
2023-01-07T09:58:57.186Z,2.92
2023-01-07T10:01:36.612Z,3.03
2023-01-07T10:04:12.535Z,2.58
2023-01-07T10:06:53.859Z,2.50
2023-01-07T10:09:40.317Z,2.63
2023-01-07T10:12:26.647Z,2.50
2023-01-07T10:15:16.122Z,2.50
2023-01-07T10:18:12.458Z,2.35
2023-01-07T10:20:59.864Z,2.40
2023-01-07T10:23:32.371Z,2.28
2023-01-07T10:26:01.648Z,2.20
2023-01-07T10:28:35.153Z,2.17
2023-01-07T10:31:02.806Z,2.25
2023-01-07T10:33:33.045Z,1.92
2023-01-07T10:36:21.868Z,2.63
2023-01-07T10:38:56.615Z,2.20
2023-01-07T10:41:27.981Z,2.22
2023-01-07T10:44:28.863Z,2.13
2023-01-07T10:47:11.454Z,2.17
2023-01-07T10:49:59.907Z,2.15
2023-01-07T10:52:40.750Z,2.10
2023-01-07T10:55:30.079Z,2.00
2023-01-07T10:57:56.976Z,2.00
2023-01-07T11:00:24.586Z,1.60
2023-01-07T11:02:55.331Z,1.85
2023-01-07T11:05:22.856Z,1.50
2023-01-07T11:07:52.984Z,1.50
2023-01-07T11:10:23.476Z,1.52
2023-01-07T11:12:54.419Z,1.50
2023-01-07T11:15:37.157Z,1.83
2023-01-07T11:18:18.465Z,1.60
2023-01-07T11:20:52.351Z,1.35
2023-01-07T11:23:35.994Z,1.70
2023-01-07T11:26:11.095Z,1.80
2023-01-07T11:28:42.080Z,1.35
2023-01-07T11:31:09.198Z,1.58
2023-01-07T11:34:01.591Z,1.90
2023-01-07T11:36:41.171Z,1.40
2023-01-07T11:39:19.921Z,1.00
2023-01-07T11:42:21.411Z,1.40
2023-01-07T11:44:48.183Z,1.40
2023-01-07T11:47:17.153Z,1.42
2023-01-07T11:49:45.190Z,1.60
2023-01-07T11:52:19.933Z,1.40
2023-01-07T11:54:52.013Z,1.30
2023-01-07T11:57:26.264Z,1.48
2023-01-07T12:00:14.019Z,1.10
2023-01-07T12:02:41.126Z,1.10
2023-01-07T12:05:26.380Z,1.00
2023-01-07T12:07:54.415Z,1.35
2023-01-07T12:10:38.670Z,1.20
2023-01-07T12:13:16.130Z,1.00
2023-01-07T12:15:57.936Z,1.08
2023-01-07T12:18:41.281Z,1.00
2023-01-07T12:21:31.141Z,1.30
2023-01-07T12:24:36.414Z,0.95
2023-01-07T12:27:06.206Z,1.30
2023-01-07T12:30:10.852Z,1.70
2023-01-07T12:32:47.051Z,1.00
2023-01-07T12:35:24.491Z,1.50
2023-01-07T12:37:57.493Z,1.73
2023-01-07T12:40:32.529Z,1.20
2023-01-07T12:43:15.745Z,1.10
2023-01-07T12:45:50.830Z,1.10
2023-01-07T12:48:26.147Z,0.90
2023-01-07T12:50:55.045Z,1.20
2023-01-07T12:53:31.855Z,1.13
2023-01-07T12:56:03.517Z,1.17
2023-01-07T12:58:52.804Z,1.38
2023-01-07T13:01:30.832Z,1.10
2023-01-07T13:04:03.096Z,1.45
2023-01-07T13:06:37.624Z,1.00
2023-01-07T13:09:24.698Z,1.10
2023-01-07T13:12:40.723Z,1.20
2023-01-07T13:15:11.462Z,1.00
2023-01-07T13:17:38.420Z,1.10
2023-01-07T13:20:14.609Z,1.20
2023-01-07T13:22:47.924Z,0.93
2023-01-07T13:25:33.961Z,0.90
2023-01-07T13:28:19.652Z,1.00
2023-01-07T13:31:12.394Z,1.08
2023-01-07T13:34:10.310Z,0.90
2023-01-07T13:36:46.479Z,1.00
2023-01-07T13:39:31.923Z,0.93
2023-01-07T13:42:05.728Z,1.50
2023-01-07T13:45:10.091Z,1.25
2023-01-07T13:47:41.943Z,2.13
2023-01-07T13:50:19.669Z,1.95
2023-01-07T13:52:56.229Z,1.98
2023-01-07T13:55:32.567Z,2.00
2023-01-07T13:57:59.307Z,1.75
2023-01-07T14:00:41.981Z,1.45
2023-01-07T14:03:32.098Z,1.52
2023-01-07T14:06:20.674Z,2.53
2023-01-07T14:08:51.306Z,1.55
2023-01-07T14:11:42.419Z,1.15
2023-01-07T14:14:47.061Z,1.45
2023-01-07T14:17:33.196Z,1.20
2023-01-07T14:20:11.651Z,1.15
2023-01-07T14:22:44.525Z,1.10
2023-01-07T14:25:28.988Z,1.77
2023-01-07T14:28:17.538Z,1.67
2023-01-07T14:30:45.960Z,1.40
2023-01-07T14:33:39.571Z,1.60
2023-01-07T14:36:08.858Z,1.30
2023-01-07T14:38:35.894Z,1.73
2023-01-07T14:41:16.740Z,1.52
2023-01-07T14:43:46.356Z,1.80
2023-01-07T14:46:22.358Z,1.73
2023-01-07T14:49:02.337Z,2.00
2023-01-07T14:51:36.335Z,2.22
2023-01-07T14:54:21.562Z,2.13
2023-01-07T14:56:57.787Z,2.05
2023-01-07T14:59:34.475Z,1.90
2023-01-07T15:02:27.798Z,2.05
2023-01-07T15:05:04.795Z,2.10
2023-01-07T15:07:34.500Z,2.38
2023-01-07T15:10:31.923Z,2.00
2023-01-07T15:13:18.614Z,2.30
2023-01-07T15:16:02.015Z,2.35
2023-01-07T15:18:41.994Z,2.22
2023-01-07T15:21:23.056Z,2.30
2023-01-07T15:24:16.071Z,2.13
2023-01-07T15:26:46.125Z,2.20
2023-01-07T15:29:25.137Z,2.08
2023-01-07T15:31:57.863Z,1.90
2023-01-07T15:34:27.767Z,2.67
2023-01-07T15:36:54.589Z,2.20
2023-01-07T15:39:27.210Z,1.92
2023-01-07T15:41:55.186Z,2.38
2023-01-07T15:44:25.180Z,2.45
2023-01-07T15:46:52.465Z,1.95
2023-01-07T15:49:22.339Z,2.55
2023-01-07T15:51:54.677Z,3.00
2023-01-07T15:54:27.137Z,3.40
2023-01-07T15:56:57.507Z,3.10
2023-01-07T15:59:28.243Z,2.95
2023-01-07T16:02:01.112Z,4.85
2023-01-07T16:04:31.512Z,6.70
2023-01-07T16:06:59.589Z,6.47
2023-01-07T16:12:37.144Z,5.63
2023-01-07T16:15:26.400Z,5.43
2023-01-07T16:18:01.156Z,8.10
2023-01-07T16:20:38.682Z,7.10
2023-01-07T16:23:08.502Z,6.22
2023-01-07T16:25:37.684Z,4.72
2023-01-07T16:28:04.988Z,4.80
2023-01-07T16:30:32.647Z,3.88
2023-01-07T16:33:00.221Z,3.20
2023-01-07T16:35:34.053Z,3.10
2023-01-07T16:38:01.459Z,2.50
2023-01-07T16:40:36.334Z,2.85
2023-01-07T16:43:05.234Z,2.40
2023-01-07T16:45:33.888Z,2.00
2023-01-07T16:48:20.224Z,1.70
2023-01-07T16:50:49.113Z,2.20
2023-01-07T16:53:21.998Z,1.80
2023-01-07T16:55:49.991Z,2.08
2023-01-07T16:58:27.423Z,1.50
2023-01-07T17:00:56.677Z,1.70
2023-01-07T17:03:24.512Z,1.70
2023-01-07T17:06:03.825Z,1.92
2023-01-07T17:08:31.533Z,1.77
2023-01-07T17:11:06.021Z,2.20
2023-01-07T17:13:38.339Z,1.98
2023-01-07T17:16:16.005Z,2.33
2023-01-07T17:18:42.807Z,1.73
2023-01-07T17:21:42.653Z,2.00
2023-01-07T17:24:26.805Z,2.10
2023-01-07T17:26:54.931Z,1.55
2023-01-07T17:29:24.867Z,1.33
2023-01-07T17:31:51.771Z,1.70
2023-01-07T17:34:18.616Z,1.67
2023-01-07T17:36:45.336Z,1.55
2023-01-07T17:39:12.142Z,1.60
2023-01-07T17:41:57.975Z,1.40
2023-01-07T17:44:26.745Z,1.70
2023-01-07T17:46:53.731Z,1.40
2023-01-07T17:49:20.744Z,1.40
2023-01-07T17:51:48.714Z,1.85
2023-01-07T17:54:23.790Z,1.83
2023-01-07T17:56:51.646Z,1.70
2023-01-07T17:59:20.641Z,1.40
2023-01-07T18:01:47.895Z,1.30
2023-01-07T18:04:14.927Z,1.33
2023-01-07T18:06:42.664Z,1.73
2023-01-07T18:09:11.485Z,1.60
2023-01-07T18:12:00.860Z,1.52
2023-01-07T18:14:27.814Z,1.85
2023-01-07T18:16:54.608Z,1.92
2023-01-07T18:19:21.502Z,2.70
2023-01-07T18:21:48.430Z,4.25
2023-01-07T18:24:20.411Z,3.95
2023-01-07T18:26:47.768Z,3.78
2023-01-07T18:29:14.879Z,3.22
2023-01-07T18:31:43.432Z,2.95
2023-01-07T18:34:11.372Z,3.25
2023-01-07T18:36:38.312Z,3.20
2023-01-07T18:39:06.692Z,3.10
2023-01-07T18:41:34.230Z,3.00
2023-01-07T18:44:01.211Z,3.00
2023-01-07T18:46:28.201Z,3.25
2023-01-07T18:48:55.504Z,3.40
2023-01-07T18:51:22.517Z,3.33
2023-01-07T18:53:49.387Z,3.28
2023-01-07T18:56:16.307Z,3.15
2023-01-07T18:58:44.287Z,2.80
2023-01-07T19:01:11.464Z,3.10
2023-01-07T19:03:38.997Z,3.65
2023-01-07T19:06:08.039Z,3.15
2023-01-07T19:08:35.337Z,2.63
2023-01-07T19:11:05.704Z,3.30
2023-01-07T19:13:32.667Z,3.17
2023-01-07T19:15:59.565Z,2.90
2023-01-07T19:18:26.378Z,2.55
2023-01-07T19:20:53.246Z,2.80
2023-01-07T19:23:20.225Z,2.38
2023-01-07T19:25:57.442Z,2.25
2023-01-07T19:28:24.475Z,2.28
2023-01-07T19:30:51.476Z,2.00
2023-01-07T19:33:18.374Z,2.90
2023-01-07T19:35:45.414Z,2.70
2023-01-07T19:38:13.025Z,2.33
2023-01-07T19:40:45.656Z,2.80
2023-01-07T19:43:13.409Z,2.83
2023-01-07T19:45:40.762Z,3.20
2023-01-07T19:48:07.722Z,3.67
2023-01-07T19:50:34.663Z,3.13
2023-01-07T19:53:01.520Z,2.97
2023-01-07T19:55:28.387Z,3.30
2023-01-07T19:57:56.058Z,3.15
2023-01-07T20:00:23.072Z,3.67
2023-01-07T20:02:50.078Z,3.25
2023-01-07T20:05:16.792Z,2.95
2023-01-07T20:07:43.666Z,3.42
2023-01-07T20:10:11.389Z,3.50
2023-01-07T20:12:38.248Z,3.22
2023-01-07T20:15:05.509Z,3.45
2023-01-07T20:17:33.341Z,3.20
2023-01-07T20:20:00.457Z,4.13
2023-01-07T20:22:28.520Z,4.55
2023-01-07T20:24:55.345Z,3.80
2023-01-07T20:27:22.276Z,3.78
2023-01-07T20:29:49.329Z,3.13
2023-01-07T20:32:17.366Z,3.60
2023-01-07T20:34:45.703Z,3.47
2023-01-07T20:37:12.775Z,3.35
2023-01-07T20:39:39.868Z,4.05
2023-01-07T20:42:06.677Z,4.10
2023-01-07T20:44:34.807Z,3.15
2023-01-07T20:47:02.278Z,3.63
2023-01-07T20:49:29.173Z,3.75
2023-01-07T20:51:56.272Z,4.00
2023-01-07T20:54:22.992Z,3.45
2023-01-07T20:56:49.970Z,4.00
2023-01-07T20:59:17.369Z,3.90
2023-01-07T21:01:44.468Z,3.88
2023-01-07T21:04:12.918Z,3.42
2023-01-07T21:06:39.841Z,3.97
2023-01-07T21:09:06.877Z,3.90
2023-01-07T21:11:33.962Z,4.15
2023-01-07T21:14:00.930Z,4.25
2023-01-07T21:16:28.648Z,3.83
2023-01-07T21:18:56.154Z,4.00
2023-01-07T21:21:25.355Z,4.13
2023-01-07T21:23:53.437Z,4.03
2023-01-07T21:26:20.984Z,4.13
2023-01-07T21:28:47.909Z,3.75
2023-01-07T21:31:15.994Z,4.20
2023-01-07T21:33:43.571Z,3.92
2023-01-07T21:36:18.310Z,3.58
2023-01-07T21:38:46.653Z,4.28
2023-01-07T21:41:17.164Z,3.88
2023-01-07T21:43:44.438Z,4.20
2023-01-07T21:46:11.571Z,4.35
2023-01-07T21:48:41.280Z,3.95
2023-01-07T21:51:11.178Z,3.72
2023-01-07T21:53:38.153Z,3.67
2023-01-07T21:56:16.012Z,3.40
2023-01-07T21:58:43.913Z,3.42
2023-01-07T22:01:11.084Z,6.55
2023-01-07T22:03:40.154Z,8.30
2023-01-07T22:06:10.607Z,6.47
2023-01-07T22:08:37.437Z,3.95
2023-01-07T22:11:04.322Z,3.67
2023-01-07T22:13:31.227Z,3.95
2023-01-07T22:15:58.028Z,3.55
2023-01-07T22:18:24.912Z,3.97
2023-01-07T22:20:55.834Z,3.63
2023-01-07T22:23:22.754Z,3.55
2023-01-07T22:25:49.929Z,4.30
2023-01-07T22:28:18.371Z,3.47
2023-01-07T22:30:49.185Z,3.47
2023-01-07T22:33:16.257Z,4.10
2023-01-07T22:35:43.092Z,4.00
2023-01-07T22:38:11.902Z,3.35
2023-01-07T22:40:38.701Z,3.58
2023-01-07T22:43:07.223Z,3.53
2023-01-07T22:45:54.990Z,4.72
2023-01-07T22:48:24.672Z,4.30
2023-01-07T22:50:53.839Z,4.07
2023-01-07T22:53:22.359Z,3.90
2023-01-07T22:55:49.500Z,4.25
2023-01-07T22:58:17.309Z,5.13
2023-01-07T23:00:53.110Z,4.72
2023-01-07T23:03:20.709Z,4.40
2023-01-07T23:05:47.791Z,4.38
2023-01-07T23:08:14.500Z,4.28
2023-01-07T23:10:42.747Z,4.22
2023-01-07T23:13:09.610Z,4.15
2023-01-07T23:15:37.367Z,4.18
2023-01-07T23:18:05.823Z,4.30
2023-01-07T23:20:33.315Z,7.60
2023-01-07T23:23:00.782Z,8.10
2023-01-07T23:25:27.550Z,6.80
2023-01-07T23:27:54.238Z,4.28
2023-01-07T23:30:21.006Z,4.40
2023-01-07T23:32:47.737Z,4.75
2023-01-07T23:35:14.435Z,3.90
2023-01-07T23:37:41.211Z,4.72
2023-01-07T23:40:08.784Z,14.75
2023-01-07T23:42:36.117Z,8.40
2023-01-07T23:45:04.221Z,6.80
2023-01-07T23:47:31.087Z,4.65
2023-01-07T23:49:57.752Z,3.90
2023-01-07T23:52:24.505Z,3.35
2023-01-07T23:54:51.239Z,2.72
2023-01-07T23:57:17.922Z,2.45
2023-01-07T23:59:44.977Z,2.70
